Time;durP1;ratioP1;P1;durP2;ratioP2;P2;SDS_P1;SDS_P2;PMS_P1;PMS_P2;Temp;Humidity;BMP_temperature;BMP_pressure;BME280_temperature;BME280_humidity;BME280_pressure;Samples;Min_cycle;Max_cycle;Signal;HPM_P1;HPM_P2
2023/12/05 08:41:31;;;;;;;;;;;;;;;;;;6299484;22;19921;-82
2023/12/05 09:43:15;;;;;;;;;;;;;;;;;;6296181;22;19921;-80
2023/12/05 09:45:43;;;;;;;;;;;;;;;;;;6309687;22;19956;-82
2023/12/05 09:48:10;;;;;;;;;;;;;;;;;;6309690;22;19907;-87
2023/12/05 09:50:36;;;;;;;;;;;;;;;;;;6309728;22;19907;-84
2023/12/05 09:53:02;;;;;;;;;;;;;;;;;;6309331;22;19906;-84
2023/12/05 09:55:27;;;;;;;;;;;;;;;;;;6309679;22;19914;-87
2023/12/05 09:57:53;;;;;;;;;;;;;;;;;;6309630;22;19952;-82
2023/12/05 10:00:18;;;;;;;;;;;;;;;;;;6282192;22;19960;-88
2023/12/05 10:02:46;;;;;;;;;;;;;;;;;;6309813;22;19910;-85
2023/12/05 10:05:14;;;;;;;;;;;;;;;;;;6282120;22;19906;-82
2023/12/05 10:07:39;;;;;;;;;;;;;;;;;;6309762;22;19961;-83
2023/12/05 10:10:05;;;;;;;;;;;;;;;;;;6309480;22;19911;-84
2023/12/05 10:12:31;;;;;;;;;;;;;;;;;;6282455;22;19985;-86
2023/12/05 10:14:56;;;;;;;;;;;;;;;;;;6309576;22;19930;-88
2023/12/05 10:17:22;;;;;;;;;;;;;;;;;;6310050;22;20215;-86
2023/12/05 10:19:48;;;;;;;;;;;;;;;;;;6309515;22;19978;-85
2023/12/05 10:22:14;;;;;;;;;;;;;;;;;;6309592;22;19930;-85
2023/12/05 10:24:39;;;;;;;;;;;;;;;;;;6282154;22;19982;-88
2023/12/05 10:27:06;;;;;;;;;;;;;;;;;;6284485;22;20321;-94
2023/12/05 10:29:39;;;;;;;;;;;;;;;;;;6283825;22;19907;-93
2023/12/05 10:32:05;;;;;;;;;;;;;;;;;;6283264;22;19938;-93
2023/12/05 10:34:30;;;;;;;;;;;;;;;;;;6284256;22;19907;-93
2023/12/05 10:37:03;;;;;;;;;;;;;;;;;;6284218;22;19907;-94
2023/12/05 10:39:35;;;;;;;;;;;;;;;;;;6286858;22;20322;-94
2023/12/05 10:42:00;;;;;;;;;;;;;;;;;;6314153;22;19914;-93
2023/12/05 10:44:26;;;;;;;;;;;;;;;;;;6291938;22;19950;-92
2023/12/05 10:46:56;;;;;;;;;;;;;;;;;;6326302;22;20325;-93
2023/12/05 10:49:22;;;;;;;;;;;;;;;;;;6329003;22;19926;-93
2023/12/05 10:51:48;;;;;;;;;;;;;;;;;;6290671;22;19914;-93
2023/12/05 10:54:13;;;;;;;;;;;;;;;;;;6287785;22;19911;-90
2023/12/05 10:56:38;;;;;;;;;;;;;;;;;;6282935;22;20036;-88
2023/12/05 10:59:05;;;;;;;;;;;;;;;;;;6282591;22;19906;-93
2023/12/05 11:01:33;;;;;;;;;;;;;;;;;;6282724;22;19906;-90
2023/12/05 11:04:02;;;;;;;;;;;;;;;;;;6282629;22;19987;-91
2023/12/05 11:06:28;;;;;;;;;;;;;;;;;;6282720;22;20310;-90
2023/12/05 11:08:53;;;;;;;;;;;;;;;;;;6282457;22;19914;-90
2023/12/05 11:11:19;;;;;;;;;;;;;;;;;;6284005;22;19922;-94
2023/12/05 11:13:45;;;;;;;;;;;;;;;;;;6284164;22;19910;-90
2023/12/05 11:16:20;;;;;;;;;;;;;;;;;;6286593;22;19913;-94
2023/12/05 11:18:45;;;;;;;;;;;;;;;;;;6283052;22;19917;-89
2023/12/05 11:21:34;;;;;;;;;;;;;;;;;;6282604;22;19907;-91
2023/12/05 11:24:11;;;;;;;;;;;;;;;;;;6282892;22;19946;-90
2023/12/05 11:26:40;;;;;;;;;;;;;;;;;;6283157;22;19907;-91
2023/12/05 11:29:14;;;;;;;;;;;;;;;;;;6283384;22;19907;-90
2023/12/05 11:31:48;;;;;;;;;;;;;;;;;;6283566;22;19972;-90
2023/12/05 11:34:14;;;;;;;;;;;;;;;;;;6282896;22;19910;-92
2023/12/05 11:36:42;;;;;;;;;;;;;;;;;;6283094;22;19907;-89
2023/12/05 11:39:08;;;;;;;;;;;;;;;;;;6282024;22;19929;-89
2023/12/05 11:41:34;;;;;;;;;;;;;;;;;;6282357;22;19914;-90
2023/12/05 11:44:27;;;;;;;;;;;;;;;;;;6282237;22;19911;-90
2023/12/05 11:46:54;;;;;;;;;;;;;;;;;;6278056;22;19907;-87
2023/12/05 11:49:40;;;;;;;;;;;;;;;;;;6281505;22;19907;-89
2023/12/05 11:52:12;;;;;;;;;;;;;;;;;;6285382;22;19911;-91
2023/12/05 11:54:43;;;;;;;;;;;;;;;;;;6284613;22;19918;-90
2023/12/05 11:57:10;;;;;;;;;;;;;;;;;;6314521;22;19907;-91
2023/12/05 11:59:39;;;;;;;;;;;;;;;;;;6285305;22;19986;-89
2023/12/05 12:02:05;;;;;;;;;;;;;;;;;;6310043;22;19918;-90
2023/12/05 12:04:30;;;;;;;;;;;;;;;;;;6281511;22;19906;-88
2023/12/05 12:06:56;;;;;;;;;;;;;;;;;;6281265;22;19907;-88
2023/12/05 12:09:21;;;;;;;;;;;;;;;;;;6281294;22;19929;-88
2023/12/05 12:11:48;;;;;;;;;;;;;;;;;;6281126;22;19914;-88
2023/12/05 12:14:19;;;;;;;;;;;;;;;;;;6281277;22;19911;-87
2023/12/05 12:16:48;;;;;;;;;;;;;;;;;;6308609;22;19929;-87
2023/12/05 12:19:15;;;;;;;;;;;;;;;;;;6281150;22;19945;-88
2023/12/05 12:21:44;;;;;;;;;;;;;;;;;;6308671;22;19907;-88
2023/12/05 12:24:20;;;;;;;;;;;;;;;;;;6281257;22;19903;-87
2023/12/05 12:26:53;;;;;;;;;;;;;;;;;;6308596;22;20334;-87
2023/12/05 12:29:18;;;;;;;;;;;;;;;;;;6308714;22;19923;-88
2023/12/05 12:31:44;;;;;;;;;;;;;;;;;;6281417;22;20337;-88
2023/12/05 12:34:20;;;;;;;;;;;;;;;;;;6281310;22;19902;-88
2023/12/05 12:36:48;;;;;;;;;;;;;;;;;;6281450;22;19985;-88
2023/12/05 12:39:15;;;;;;;;;;;;;;;;;;6281270;22;19910;-89
2023/12/05 12:41:41;;;;;;;;;;;;;;;;;;6281644;22;20336;-88
2023/12/05 12:44:08;;;;;;;;;;;;;;;;;;6280828;22;20314;-88
2023/12/05 17:37:21;;;;;;;;;;;;;;;;;;6306677;22;19949;-88
2023/12/05 17:39:46;;;;;;;;;;;;;;;;;;6282546;22;19915;-88
2023/12/05 17:42:12;;;;;;;;;;;;;;;;;;6309076;22;19911;-93
2023/12/05 17:44:38;;;;;;;;;;;;;;;;;;6283342;22;19911;-91
2023/12/05 17:47:03;;;;;;;;;;;;;;;;;;6283401;22;19918;-93
2023/12/05 17:49:29;;;;;;;;;;;;;;;;;;6284761;22;19917;-87
2023/12/05 17:51:54;;;;;;;;;;;;;;;;;;6283615;22;19961;-88
2023/12/05 17:54:19;;;;;;;;;;;;;;;;;;6310451;22;19911;-87
2023/12/05 17:56:45;;;;;;;;;;;;;;;;;;6282725;22;19911;-88
2023/12/05 17:59:10;;;;;;;;;;;;;;;;;;6283285;22;20060;-87
2023/12/05 18:01:36;;;;;;;;;;;;;;;;;;6283839;22;19911;-87
2023/12/05 18:04:01;;;;;;;;;;;;;;;;;;6282844;22;19911;-87
2023/12/05 18:06:28;;;;;;;;;;;;;;;;;;6283048;22;20334;-87
2023/12/05 18:08:53;;;;;;;;;;;;;;;;;;6282977;22;19946;-87
2023/12/05 18:11:19;;;;;;;;;;;;;;;;;;6310245;22;19934;-87
2023/12/05 18:13:44;;;;;;;;;;;;;;;;;;6283220;22;19986;-87
2023/12/05 18:16:10;;;;;;;;;;;;;;;;;;6286564;22;19911;-86
2023/12/05 18:18:36;;;;;;;;;;;;;;;;;;6284991;22;19943;-88
2023/12/05 18:21:01;;;;;;;;;;;;;;;;;;6311476;22;19934;-88
2023/12/05 18:23:27;;;;;;;;;;;;;;;;;;6283169;22;19911;-90
2023/12/05 18:25:54;;;;;;;;;;;;;;;;;;6283389;22;20318;-84
2023/12/05 18:28:19;;;;;;;;;;;;;;;;;;6283219;22;19911;-87
2023/12/05 18:30:45;;;;;;;;;;;;;;;;;;6283354;22;19917;-92
2023/12/05 18:33:11;;;;;;;;;;;;;;;;;;6283530;22;19944;-87
2023/12/05 18:35:36;;;;;;;;;;;;;;;;;;6283376;22;19911;-87
2023/12/05 18:38:02;;;;;;;;;;;;;;;;;;6294563;22;20302;-88
2023/12/05 18:40:27;;;;;;;;;;;;;;;;;;6314415;22;19910;-91
2023/12/05 18:42:53;;;;;;;;;;;;;;;;;;6315077;22;20279;-95
2023/12/05 18:45:20;;;;;;;;;;;;;;;;;;6314345;22;19918;-90
2023/12/05 18:47:48;;;;;;;;;;;;;;;;;;6315204;22;19977;-91
2023/12/05 18:50:13;;;;;;;;;;;;;;;;;;6314166;22;19910;-93
2023/12/05 18:52:39;;;;;;;;;;;;;;;;;;6314635;22;19910;-93
2023/12/05 18:55:05;;;;;;;;;;;;;;;;;;6314499;22;19914;-87
2023/12/05 18:57:31;;;;;;;;;;;;;;;;;;6314462;22;19914;-91
2023/12/05 18:59:56;;;;;;;;;;;;;;;;;;6313663;22;19946;-91
2023/12/05 19:02:22;;;;;;;;;;;;;;;;;;6314816;22;19911;-90
2023/12/05 19:04:47;;;;;;;;;;;;;;;;;;6341291;22;19910;-90
2023/12/05 19:07:13;;;;;;;;;;;;;;;;;;6314049;22;19911;-90
2023/12/05 19:09:39;;;;;;;;;;;;;;;;;;6314142;22;19934;-90
2023/12/05 19:12:06;;;;;;;;;;;;;;;;;;6313834;22;19914;-90
2023/12/05 19:14:32;;;;;;;;;;;;;;;;;;6288067;22;20318;-90
2023/12/05 19:16:58;;;;;;;;;;;;;;;;;;6313787;22;19986;-88
2023/12/05 19:19:23;;;;;;;;;;;;;;;;;;6313470;22;19934;-91
2023/12/05 19:21:49;;;;;;;;;;;;;;;;;;6313577;22;19996;-90
2023/12/05 19:24:14;;;;;;;;;;;;;;;;;;6340669;22;19907;-87
2023/12/05 19:26:40;;;;;;;;;;;;;;;;;;6314431;22;20202;-90
2023/12/05 19:29:06;;;;;;;;;;;;;;;;;;6314472;22;20317;-89
2023/12/05 19:31:31;;;;;;;;;;;;;;;;;;6313598;22;19914;-88
2023/12/05 19:33:57;;;;;;;;;;;;;;;;;;6313508;22;20310;-89
2023/12/05 19:36:22;;;;;;;;;;;;;;;;;;6313670;22;19945;-90
2023/12/05 19:38:51;;;;;;;;;;;;;;;;;;6313331;22;19914;-91
2023/12/05 19:41:17;;;;;;;;;;;;;;;;;;6313535;22;19934;-89
2023/12/05 19:43:42;;;;;;;;;;;;;;;;;;6313546;22;19911;-90
2023/12/05 19:46:08;;;;;;;;;;;;;;;;;;6313331;22;19911;-89
2023/12/05 19:48:34;;;;;;;;;;;;;;;;;;6313555;22;19934;-89
2023/12/05 19:50:59;;;;;;;;;;;;;;;;;;6313809;22;19986;-89
2023/12/05 19:53:25;;;;;;;;;;;;;;;;;;6314113;22;19910;-86
2023/12/05 19:55:53;;;;;;;;;;;;;;;;;;6314047;22;20299;-87
2023/12/05 19:58:19;;;;;;;;;;;;;;;;;;6346064;22;19914;-87
2023/12/05 20:00:44;;;;;;;;;;;;;;;;;;6313069;22;20322;-88
2023/12/05 20:03:10;;;;;;;;;;;;;;;;;;6313243;22;19982;-88
2023/12/05 20:05:35;;;;;;;;;;;;;;;;;;6340961;22;19911;-91
2023/12/05 20:08:01;;;;;;;;;;;;;;;;;;6313434;22;19915;-88
2023/12/05 20:10:27;;;;;;;;;;;;;;;;;;6313249;22;19917;-88
2023/12/05 20:12:52;;;;;;;;;;;;;;;;;;6313749;22;20292;-88
2023/12/05 20:15:17;;;;;;;;;;;;;;;;;;6312978;22;19910;-88
2023/12/05 20:17:43;;;;;;;;;;;;;;;;;;6312872;22;19918;-87
2023/12/05 20:20:08;;;;;;;;;;;;;;;;;;6312989;22;19911;-93
2023/12/05 20:22:33;;;;;;;;;;;;;;;;;;6314022;22;19956;-91
2023/12/05 20:24:59;;;;;;;;;;;;;;;;;;6312789;22;19910;-87
2023/12/05 20:27:24;;;;;;;;;;;;;;;;;;6312929;22;19910;-88
2023/12/05 20:29:49;;;;;;;;;;;;;;;;;;6312591;22;19911;-87
2023/12/05 20:32:15;;;;;;;;;;;;;;;;;;6340359;22;19937;-87
2023/12/05 20:34:40;;;;;;;;;;;;;;;;;;6312782;22;20345;-87
2023/12/05 20:37:06;;;;;;;;;;;;;;;;;;6313459;22;19926;-87
2023/12/05 20:39:34;;;;;;;;;;;;;;;;;;6312601;22;19919;-88
2023/12/05 20:42:01;;;;;;;;;;;;;;;;;;6313047;22;19945;-89
2023/12/05 20:44:26;;;;;;;;;;;;;;;;;;6312177;22;19910;-85
2023/12/05 20:46:51;;;;;;;;;;;;;;;;;;6311965;22;19997;-85
2023/12/05 20:49:17;;;;;;;;;;;;;;;;;;6312354;22;20171;-84
2023/12/05 20:51:42;;;;;;;;;;;;;;;;;;6312224;22;20283;-87
2023/12/05 20:54:08;;;;;;;;;;;;;;;;;;6312607;22;20074;-86
2023/12/05 20:56:33;;;;;;;;;;;;;;;;;;6312508;22;20307;-87
2023/12/05 20:58:59;;;;;;;;;;;;;;;;;;6312104;22;19918;-86
2023/12/05 21:01:24;;;;;;;;;;;;;;;;;;6312229;22;19911;-87
2023/12/05 21:03:49;;;;;;;;;;;;;;;;;;6312569;22;19911;-88
2023/12/05 21:06:15;;;;;;;;;;;;;;;;;;6315218;22;19933;-89
2023/12/05 21:08:40;;;;;;;;;;;;;;;;;;6314966;22;19918;-87
2023/12/05 21:11:06;;;;;;;;;;;;;;;;;;6313485;22;20006;-88
2023/12/05 21:13:32;;;;;;;;;;;;;;;;;;6346321;22;20325;-89
2023/12/05 21:15:57;;;;;;;;;;;;;;;;;;6317775;22;19910;-93
2023/12/05 21:18:23;;;;;;;;;;;;;;;;;;6315692;22;19911;-92
2023/12/05 21:20:48;;;;;;;;;;;;;;;;;;6314145;22;20308;-93
2023/12/05 21:23:14;;;;;;;;;;;;;;;;;;6316375;22;19917;-96
2023/12/05 21:25:39;;;;;;;;;;;;;;;;;;6315810;22;19934;-90
2023/12/05 21:28:04;;;;;;;;;;;;;;;;;;6315663;22;19956;-90
2023/12/05 21:30:30;;;;;;;;;;;;;;;;;;6316328;22;19952;-91
2023/12/05 21:32:55;;;;;;;;;;;;;;;;;;6315385;22;19910;-91
2023/12/05 21:35:20;;;;;;;;;;;;;;;;;;6317146;22;20230;-92
2023/12/05 21:37:46;;;;;;;;;;;;;;;;;;6313391;22;19914;-92
2023/12/05 21:40:12;;;;;;;;;;;;;;;;;;6312925;22;20318;-89
2023/12/05 21:42:37;;;;;;;;;;;;;;;;;;6311536;22;19914;-88
2023/12/05 21:45:03;;;;;;;;;;;;;;;;;;6313105;22;19918;-91
2023/12/05 21:47:28;;;;;;;;;;;;;;;;;;6315852;22;19911;-88
2023/12/05 21:49:54;;;;;;;;;;;;;;;;;;6311278;22;20276;-89
2023/12/05 21:52:21;;;;;;;;;;;;;;;;;;6312779;22;19911;-91
2023/12/05 21:54:46;;;;;;;;;;;;;;;;;;6289161;22;19915;-93
2023/12/05 21:57:11;;;;;;;;;;;;;;;;;;6316040;22;19972;-88
2023/12/05 21:59:37;;;;;;;;;;;;;;;;;;6313772;22;20246;-88
2023/12/05 22:02:03;;;;;;;;;;;;;;;;;;6319423;22;19922;-89
2023/12/05 22:04:32;;;;;;;;;;;;;;;;;;6317535;22;19917;-91
2023/12/05 22:06:59;;;;;;;;;;;;;;;;;;6318806;22;20282;-94
2023/12/05 22:09:26;;;;;;;;;;;;;;;;;;6316450;22;20326;-91
2023/12/05 22:11:53;;;;;;;;;;;;;;;;;;6316702;22;19955;-93
2023/12/05 22:14:18;;;;;;;;;;;;;;;;;;6316504;22;19917;-89
2023/12/05 22:16:44;;;;;;;;;;;;;;;;;;6319639;22;19930;-90
2023/12/05 22:19:10;;;;;;;;;;;;;;;;;;6319346;22;19937;-88
2023/12/05 22:21:40;;;;;;;;;;;;;;;;;;6294512;22;19922;-91
2023/12/05 22:24:05;;;;;;;;;;;;;;;;;;6321041;22;19906;-87
2023/12/05 22:26:30;;;;;;;;;;;;;;;;;;6317604;22;19937;-92
2023/12/05 22:28:56;;;;;;;;;;;;;;;;;;6319264;22;19911;-90
2023/12/05 22:31:22;;;;;;;;;;;;;;;;;;6322193;22;19926;-90
2023/12/05 22:33:48;;;;;;;;;;;;;;;;;;6291628;22;19919;-93
2023/12/05 22:36:18;;;;;;;;;;;;;;;;;;6316047;22;19907;-89
2023/12/05 22:38:43;;;;;;;;;;;;;;;;;;6312205;22;20032;-93
2023/12/05 22:41:09;;;;;;;;;;;;;;;;;;6310542;22;19918;-92
2023/12/05 22:43:35;;;;;;;;;;;;;;;;;;6309592;22;19944;-93
2023/12/05 22:46:11;;;;;;;;;;;;;;;;;;6309150;22;19946;-94
2023/12/05 22:48:37;;;;;;;;;;;;;;;;;;6308995;22;19907;-88
2023/12/05 22:51:03;;;;;;;;;;;;;;;;;;6313783;22;19915;-89
2023/12/05 22:53:29;;;;;;;;;;;;;;;;;;6312500;22;19998;-95
2023/12/05 22:55:54;;;;;;;;;;;;;;;;;;6312411;22;19911;-89
2023/12/05 22:58:20;;;;;;;;;;;;;;;;;;6289871;22;19921;-93
2023/12/05 23:00:46;;;;;;;;;;;;;;;;;;6310742;22;19914;-89
2023/12/05 23:03:11;;;;;;;;;;;;;;;;;;6310421;22;19933;-89
2023/12/05 23:05:36;;;;;;;;;;;;;;;;;;6309050;22;19911;-93
2023/12/05 23:08:02;;;;;;;;;;;;;;;;;;6308686;22;19911;-87
2023/12/05 23:10:28;;;;;;;;;;;;;;;;;;6289550;22;19950;-91
2023/12/05 23:12:53;;;;;;;;;;;;;;;;;;6309753;22;19915;-89
2023/12/05 23:15:18;;;;;;;;;;;;;;;;;;6296594;22;19919;-89
2023/12/05 23:17:44;;;;;;;;;;;;;;;;;;6310113;22;19985;-87
2023/12/05 23:20:09;;;;;;;;;;;;;;;;;;6309169;22;19960;-90
2023/12/05 23:22:35;;;;;;;;;;;;;;;;;;6309490;22;19911;-89
2023/12/05 23:25:01;;;;;;;;;;;;;;;;;;6309052;22;20373;-89
2023/12/05 23:27:26;;;;;;;;;;;;;;;;;;6310986;22;20214;-87
2023/12/05 23:29:51;;;;;;;;;;;;;;;;;;6308381;22;19915;-89
2023/12/05 23:32:17;;;;;;;;;;;;;;;;;;6308864;22;19911;-90
2023/12/05 23:34:42;;;;;;;;;;;;;;;;;;6308309;22;19914;-87
2023/12/05 23:37:07;;;;;;;;;;;;;;;;;;6308477;22;19984;-89
2023/12/05 23:39:33;;;;;;;;;;;;;;;;;;6308157;22;19911;-91
2023/12/05 23:41:59;;;;;;;;;;;;;;;;;;6308915;22;20321;-88
2023/12/05 23:44:24;;;;;;;;;;;;;;;;;;6309156;22;19910;-89
2023/12/05 23:46:50;;;;;;;;;;;;;;;;;;6309785;22;19918;-88
2023/12/05 23:49:15;;;;;;;;;;;;;;;;;;6308592;22;19918;-91
2023/12/05 23:51:40;;;;;;;;;;;;;;;;;;6307925;22;19910;-89
2023/12/05 23:54:06;;;;;;;;;;;;;;;;;;6307753;22;19911;-88
2023/12/05 23:56:31;;;;;;;;;;;;;;;;;;6308090;22;20219;-92
2023/12/05 23:58:56;;;;;;;;;;;;;;;;;;6309190;22;19911;-91
